sensor_id;sensor_type;location;lat;lon;timestamp;P1;durP1;ratioP1;P2;durP2;ratioP2
11034;SDS011;5571;48.110;-1.706;2022-11-21T00:00:49;34.93;;;7.37;;
11034;SDS011;5571;48.110;-1.706;2022-11-21T00:03:16;27.23;;;6.90;;
11034;SDS011;5571;48.110;-1.706;2022-11-21T00:05:43;32.50;;;7.20;;
11034;SDS011;5571;48.110;-1.706;2022-11-21T00:08:11;29.60;;;6.90;;
11034;SDS011;5571;48.110;-1.706;2022-11-21T00:10:38;26.83;;;7.47;;
11034;SDS011;5571;48.110;-1.706;2022-11-21T00:13:06;36.17;;;10.57;;
11034;SDS011;5571;48.110;-1.706;2022-11-21T00:15:36;31.47;;;9.30;;
11034;SDS011;5571;48.110;-1.706;2022-11-21T00:18:02;39.83;;;12.63;;
11034;SDS011;5571;48.110;-1.706;2022-11-21T00:20:28;36.30;;;10.43;;
11034;SDS011;5571;48.110;-1.706;2022-11-21T00:22:54;39.03;;;11.03;;
11034;SDS011;5571;48.110;-1.706;2022-11-21T00:25:19;31.37;;;8.73;;
11034;SDS011;5571;48.110;-1.706;2022-11-21T00:27:45;29.23;;;7.97;;
11034;SDS011;5571;48.110;-1.706;2022-11-21T00:30:11;34.17;;;8.27;;
11034;SDS011;5571;48.110;-1.706;2022-11-21T00:32:37;37.40;;;7.40;;
11034;SDS011;5571;48.110;-1.706;2022-11-21T00:35:03;23.30;;;6.80;;
11034;SDS011;5571;48.110;-1.706;2022-11-21T00:37:30;28.87;;;7.33;;
11034;SDS011;5571;48.110;-1.706;2022-11-21T00:39:56;19.60;;;6.00;;
11034;SDS011;5571;48.110;-1.706;2022-11-21T00:42:22;25.87;;;7.37;;
11034;SDS011;5571;48.110;-1.706;2022-11-21T00:44:47;26.63;;;6.30;;
11034;SDS011;5571;48.110;-1.706;2022-11-21T00:47:13;33.67;;;6.80;;
11034;SDS011;5571;48.110;-1.706;2022-11-21T00:49:39;20.63;;;5.70;;
11034;SDS011;5571;48.110;-1.706;2022-11-21T00:52:04;33.37;;;7.53;;
11034;SDS011;5571;48.110;-1.706;2022-11-21T00:54:30;31.03;;;8.53;;
11034;SDS011;5571;48.110;-1.706;2022-11-21T00:56:55;34.47;;;7.33;;
11034;SDS011;5571;48.110;-1.706;2022-11-21T00:59:21;24.37;;;7.03;;
11034;SDS011;5571;48.110;-1.706;2022-11-21T01:01:46;27.80;;;6.50;;
11034;SDS011;5571;48.110;-1.706;2022-11-21T01:04:12;28.70;;;6.47;;
11034;SDS011;5571;48.110;-1.706;2022-11-21T01:06:38;27.20;;;5.47;;
11034;SDS011;5571;48.110;-1.706;2022-11-21T01:09:03;22.67;;;5.77;;
11034;SDS011;5571;48.110;-1.706;2022-11-21T01:11:29;27.43;;;5.83;;
11034;SDS011;5571;48.110;-1.706;2022-11-21T01:13:55;24.43;;;5.10;;
11034;SDS011;5571;48.110;-1.706;2022-11-21T01:16:22;26.93;;;5.70;;
11034;SDS011;5571;48.110;-1.706;2022-11-21T01:18:49;25.70;;;6.20;;
11034;SDS011;5571;48.110;-1.706;2022-11-21T01:21:19;27.83;;;5.20;;
11034;SDS011;5571;48.110;-1.706;2022-11-21T01:23:47;25.57;;;5.17;;
11034;SDS011;5571;48.110;-1.706;2022-11-21T01:26:17;30.13;;;5.47;;
11034;SDS011;5571;48.110;-1.706;2022-11-21T01:28:48;27.80;;;5.40;;
11034;SDS011;5571;48.110;-1.706;2022-11-21T01:31:14;27.27;;;5.40;;
11034;SDS011;5571;48.110;-1.706;2022-11-21T01:33:42;28.73;;;5.70;;
11034;SDS011;5571;48.110;-1.706;2022-11-21T01:36:12;28.00;;;6.23;;
11034;SDS011;5571;48.110;-1.706;2022-11-21T01:38:49;23.63;;;6.07;;
11034;SDS011;5571;48.110;-1.706;2022-11-21T01:41:21;22.07;;;5.67;;
11034;SDS011;5571;48.110;-1.706;2022-11-21T01:43:52;26.63;;;5.33;;
11034;SDS011;5571;48.110;-1.706;2022-11-21T01:46:19;30.30;;;5.40;;
11034;SDS011;5571;48.110;-1.706;2022-11-21T01:59:14;23.57;;;4.90;;
11034;SDS011;5571;48.110;-1.706;2022-11-21T02:01:45;27.77;;;4.93;;
11034;SDS011;5571;48.110;-1.706;2022-11-21T02:04:12;27.57;;;5.57;;
11034;SDS011;5571;48.110;-1.706;2022-11-21T02:06:38;28.60;;;5.30;;
11034;SDS011;5571;48.110;-1.706;2022-11-21T02:09:04;22.17;;;5.37;;
11034;SDS011;5571;48.110;-1.706;2022-11-21T02:11:38;30.90;;;5.50;;
11034;SDS011;5571;48.110;-1.706;2022-11-21T02:14:08;17.90;;;4.70;;
11034;SDS011;5571;48.110;-1.706;2022-11-21T02:16:35;23.23;;;4.70;;
11034;SDS011;5571;48.110;-1.706;2022-11-21T02:19:01;30.90;;;5.37;;
11034;SDS011;5571;48.110;-1.706;2022-11-21T02:24:21;27.30;;;5.60;;
11034;SDS011;5571;48.110;-1.706;2022-11-21T02:26:56;22.23;;;5.30;;
11034;SDS011;5571;48.110;-1.706;2022-11-21T02:29:23;22.90;;;5.43;;
11034;SDS011;5571;48.110;-1.706;2022-11-21T02:31:49;18.53;;;4.90;;
11034;SDS011;5571;48.110;-1.706;2022-11-21T02:34:16;24.37;;;5.17;;
11034;SDS011;5571;48.110;-1.706;2022-11-21T02:36:43;30.13;;;5.60;;
11034;SDS011;5571;48.110;-1.706;2022-11-21T02:39:15;22.67;;;5.50;;
11034;SDS011;5571;48.110;-1.706;2022-11-21T02:41:56;25.63;;;5.53;;
11034;SDS011;5571;48.110;-1.706;2022-11-21T02:44:30;34.10;;;6.10;;
11034;SDS011;5571;48.110;-1.706;2022-11-21T02:47:24;30.90;;;5.47;;
11034;SDS011;5571;48.110;-1.706;2022-11-21T02:49:55;25.30;;;5.83;;
11034;SDS011;5571;48.110;-1.706;2022-11-21T02:52:26;22.63;;;5.13;;
11034;SDS011;5571;48.110;-1.706;2022-11-21T02:54:51;34.37;;;5.70;;
11034;SDS011;5571;48.110;-1.706;2022-11-21T02:57:17;24.00;;;5.80;;
11034;SDS011;5571;48.110;-1.706;2022-11-21T02:59:43;25.87;;;5.57;;
11034;SDS011;5571;48.110;-1.706;2022-11-21T03:02:08;23.83;;;5.03;;
11034;SDS011;5571;48.110;-1.706;2022-11-21T03:04:34;27.13;;;5.47;;
11034;SDS011;5571;48.110;-1.706;2022-11-21T03:06:59;18.87;;;4.60;;
11034;SDS011;5571;48.110;-1.706;2022-11-21T03:09:25;19.90;;;5.40;;
11034;SDS011;5571;48.110;-1.706;2022-11-21T03:11:51;22.63;;;5.03;;
11034;SDS011;5571;48.110;-1.706;2022-11-21T03:14:16;20.30;;;5.07;;
11034;SDS011;5571;48.110;-1.706;2022-11-21T03:16:42;23.27;;;5.70;;
11034;SDS011;5571;48.110;-1.706;2022-11-21T03:19:07;23.93;;;5.60;;
11034;SDS011;5571;48.110;-1.706;2022-11-21T03:21:33;24.57;;;5.23;;
11034;SDS011;5571;48.110;-1.706;2022-11-21T03:23:59;24.87;;;5.13;;
11034;SDS011;5571;48.110;-1.706;2022-11-21T03:26:24;26.80;;;5.77;;
11034;SDS011;5571;48.110;-1.706;2022-11-21T03:28:50;26.53;;;6.10;;
11034;SDS011;5571;48.110;-1.706;2022-11-21T03:31:15;26.90;;;6.37;;
11034;SDS011;5571;48.110;-1.706;2022-11-21T03:33:41;26.43;;;6.00;;
11034;SDS011;5571;48.110;-1.706;2022-11-21T03:36:07;25.03;;;5.13;;
11034;SDS011;5571;48.110;-1.706;2022-11-21T03:38:33;30.07;;;5.60;;
11034;SDS011;5571;48.110;-1.706;2022-11-21T03:41:01;23.10;;;5.60;;
11034;SDS011;5571;48.110;-1.706;2022-11-21T03:43:29;24.30;;;5.93;;
11034;SDS011;5571;48.110;-1.706;2022-11-21T03:45:55;27.17;;;6.27;;
11034;SDS011;5571;48.110;-1.706;2022-11-21T03:48:20;22.47;;;5.37;;
11034;SDS011;5571;48.110;-1.706;2022-11-21T03:50:46;26.03;;;5.63;;
11034;SDS011;5571;48.110;-1.706;2022-11-21T03:53:11;20.23;;;5.30;;
11034;SDS011;5571;48.110;-1.706;2022-11-21T03:55:37;24.07;;;5.40;;
11034;SDS011;5571;48.110;-1.706;2022-11-21T03:58:03;30.70;;;6.17;;
11034;SDS011;5571;48.110;-1.706;2022-11-21T04:00:28;34.13;;;5.93;;
11034;SDS011;5571;48.110;-1.706;2022-11-21T04:02:54;29.33;;;6.07;;
11034;SDS011;5571;48.110;-1.706;2022-11-21T04:05:19;21.30;;;5.47;;
11034;SDS011;5571;48.110;-1.706;2022-11-21T04:07:45;26.23;;;5.90;;
11034;SDS011;5571;48.110;-1.706;2022-11-21T04:10:11;23.50;;;5.90;;
11034;SDS011;5571;48.110;-1.706;2022-11-21T04:12:36;26.07;;;5.10;;
11034;SDS011;5571;48.110;-1.706;2022-11-21T04:15:02;29.67;;;5.53;;
11034;SDS011;5571;48.110;-1.706;2022-11-21T04:17:28;17.93;;;5.03;;
11034;SDS011;5571;48.110;-1.706;2022-11-21T04:19:53;29.07;;;5.67;;
11034;SDS011;5571;48.110;-1.706;2022-11-21T04:22:19;19.17;;;5.20;;
11034;SDS011;5571;48.110;-1.706;2022-11-21T04:24:54;22.00;;;5.40;;
11034;SDS011;5571;48.110;-1.706;2022-11-21T04:27:19;24.37;;;5.43;;
11034;SDS011;5571;48.110;-1.706;2022-11-21T04:29:45;26.97;;;5.73;;
11034;SDS011;5571;48.110;-1.706;2022-11-21T04:32:10;29.30;;;5.80;;
11034;SDS011;5571;48.110;-1.706;2022-11-21T04:34:36;34.83;;;5.50;;
11034;SDS011;5571;48.110;-1.706;2022-11-21T04:37:03;29.57;;;5.70;;
11034;SDS011;5571;48.110;-1.706;2022-11-21T04:39:29;24.13;;;5.27;;
11034;SDS011;5571;48.110;-1.706;2022-11-21T04:41:54;32.73;;;5.17;;
11034;SDS011;5571;48.110;-1.706;2022-11-21T04:44:20;25.87;;;5.03;;
11034;SDS011;5571;48.110;-1.706;2022-11-21T04:46:45;24.20;;;5.07;;
11034;SDS011;5571;48.110;-1.706;2022-11-21T04:49:11;24.30;;;4.83;;
11034;SDS011;5571;48.110;-1.706;2022-11-21T04:51:37;26.67;;;5.23;;
11034;SDS011;5571;48.110;-1.706;2022-11-21T04:54:02;20.23;;;4.57;;
11034;SDS011;5571;48.110;-1.706;2022-11-21T04:56:28;23.87;;;4.93;;
11034;SDS011;5571;48.110;-1.706;2022-11-21T04:58:53;20.20;;;4.80;;
11034;SDS011;5571;48.110;-1.706;2022-11-21T05:01:19;26.40;;;5.87;;
11034;SDS011;5571;48.110;-1.706;2022-11-21T05:03:45;26.90;;;5.33;;
11034;SDS011;5571;48.110;-1.706;2022-11-21T05:06:10;21.23;;;4.87;;
11034;SDS011;5571;48.110;-1.706;2022-11-21T05:08:36;27.63;;;5.10;;
11034;SDS011;5571;48.110;-1.706;2022-11-21T05:11:01;28.13;;;4.83;;
11034;SDS011;5571;48.110;-1.706;2022-11-21T05:13:45;26.87;;;4.87;;
11034;SDS011;5571;48.110;-1.706;2022-11-21T05:16:11;28.27;;;4.70;;
11034;SDS011;5571;48.110;-1.706;2022-11-21T05:18:37;23.87;;;5.07;;
11034;SDS011;5571;48.110;-1.706;2022-11-21T05:21:02;20.63;;;4.43;;
11034;SDS011;5571;48.110;-1.706;2022-11-21T05:23:28;24.17;;;4.73;;
11034;SDS011;5571;48.110;-1.706;2022-11-21T05:25:54;25.50;;;5.00;;
11034;SDS011;5571;48.110;-1.706;2022-11-21T05:28:19;24.47;;;5.00;;
11034;SDS011;5571;48.110;-1.706;2022-11-21T05:30:45;23.03;;;4.97;;
11034;SDS011;5571;48.110;-1.706;2022-11-21T05:33:10;22.10;;;5.00;;
11034;SDS011;5571;48.110;-1.706;2022-11-21T05:35:36;21.80;;;4.60;;
11034;SDS011;5571;48.110;-1.706;2022-11-21T05:38:02;25.10;;;4.50;;
11034;SDS011;5571;48.110;-1.706;2022-11-21T05:40:28;28.33;;;5.00;;
11034;SDS011;5571;48.110;-1.706;2022-11-21T05:42:53;28.60;;;4.77;;
11034;SDS011;5571;48.110;-1.706;2022-11-21T05:45:37;27.67;;;4.30;;
11034;SDS011;5571;48.110;-1.706;2022-11-21T05:48:03;22.47;;;5.10;;
11034;SDS011;5571;48.110;-1.706;2022-11-21T05:50:32;24.23;;;4.47;;
11034;SDS011;5571;48.110;-1.706;2022-11-21T05:53:05;27.77;;;5.00;;
11034;SDS011;5571;48.110;-1.706;2022-11-21T05:55:32;21.67;;;5.00;;
11034;SDS011;5571;48.110;-1.706;2022-11-21T05:57:58;21.67;;;4.00;;
11034;SDS011;5571;48.110;-1.706;2022-11-21T06:00:25;24.93;;;4.13;;
11034;SDS011;5571;48.110;-1.706;2022-11-21T06:02:51;23.43;;;4.47;;
11034;SDS011;5571;48.110;-1.706;2022-11-21T06:05:35;26.00;;;4.40;;
11034;SDS011;5571;48.110;-1.706;2022-11-21T06:08:00;24.20;;;4.73;;
11034;SDS011;5571;48.110;-1.706;2022-11-21T06:10:26;23.33;;;4.17;;
11034;SDS011;5571;48.110;-1.706;2022-11-21T06:12:51;24.30;;;4.30;;
11034;SDS011;5571;48.110;-1.706;2022-11-21T06:15:17;18.93;;;4.30;;
11034;SDS011;5571;48.110;-1.706;2022-11-21T06:17:43;22.67;;;4.43;;
11034;SDS011;5571;48.110;-1.706;2022-11-21T06:20:08;29.57;;;5.03;;
11034;SDS011;5571;48.110;-1.706;2022-11-21T06:22:34;19.23;;;4.40;;
11034;SDS011;5571;48.110;-1.706;2022-11-21T06:25:00;24.20;;;4.83;;
11034;SDS011;5571;48.110;-1.706;2022-11-21T06:27:27;25.73;;;4.60;;
11034;SDS011;5571;48.110;-1.706;2022-11-21T06:29:53;20.97;;;5.03;;
11034;SDS011;5571;48.110;-1.706;2022-11-21T06:32:19;19.43;;;5.07;;
11034;SDS011;5571;48.110;-1.706;2022-11-21T06:34:44;28.67;;;5.57;;
11034;SDS011;5571;48.110;-1.706;2022-11-21T06:37:10;32.50;;;4.83;;
11034;SDS011;5571;48.110;-1.706;2022-11-21T06:39:36;16.77;;;4.33;;
11034;SDS011;5571;48.110;-1.706;2022-11-21T06:42:01;24.27;;;4.40;;
11034;SDS011;5571;48.110;-1.706;2022-11-21T06:44:27;24.07;;;4.93;;
11034;SDS011;5571;48.110;-1.706;2022-11-21T06:46:52;21.40;;;5.00;;
11034;SDS011;5571;48.110;-1.706;2022-11-21T06:49:18;18.83;;;4.30;;
11034;SDS011;5571;48.110;-1.706;2022-11-21T06:51:46;26.07;;;4.47;;
11034;SDS011;5571;48.110;-1.706;2022-11-21T06:54:11;19.83;;;4.03;;
11034;SDS011;5571;48.110;-1.706;2022-11-21T06:56:37;20.97;;;4.53;;
11034;SDS011;5571;48.110;-1.706;2022-11-21T06:59:03;20.00;;;4.30;;
11034;SDS011;5571;48.110;-1.706;2022-11-21T07:01:28;28.43;;;4.93;;
11034;SDS011;5571;48.110;-1.706;2022-11-21T07:03:54;22.97;;;4.87;;
11034;SDS011;5571;48.110;-1.706;2022-11-21T07:06:20;18.93;;;4.57;;
11034;SDS011;5571;48.110;-1.706;2022-11-21T07:08:46;19.97;;;4.00;;
11034;SDS011;5571;48.110;-1.706;2022-11-21T07:11:12;27.17;;;4.97;;
11034;SDS011;5571;48.110;-1.706;2022-11-21T07:13:39;30.07;;;4.93;;
11034;SDS011;5571;48.110;-1.706;2022-11-21T07:16:08;20.57;;;4.70;;
11034;SDS011;5571;48.110;-1.706;2022-11-21T07:18:38;18.83;;;4.80;;
11034;SDS011;5571;48.110;-1.706;2022-11-21T07:21:04;22.53;;;4.60;;
11034;SDS011;5571;48.110;-1.706;2022-11-21T07:23:30;24.13;;;5.20;;
11034;SDS011;5571;48.110;-1.706;2022-11-21T07:26:00;24.77;;;4.53;;
11034;SDS011;5571;48.110;-1.706;2022-11-21T07:28:28;26.37;;;5.10;;
11034;SDS011;5571;48.110;-1.706;2022-11-21T07:30:55;23.00;;;5.00;;
11034;SDS011;5571;48.110;-1.706;2022-11-21T07:33:21;22.70;;;5.27;;
11034;SDS011;5571;48.110;-1.706;2022-11-21T07:35:46;20.83;;;4.60;;
11034;SDS011;5571;48.110;-1.706;2022-11-21T07:38:12;30.00;;;5.20;;
11034;SDS011;5571;48.110;-1.706;2022-11-21T07:40:38;25.43;;;5.03;;
11034;SDS011;5571;48.110;-1.706;2022-11-21T07:43:04;21.10;;;4.47;;
11034;SDS011;5571;48.110;-1.706;2022-11-21T07:45:30;34.37;;;5.07;;
11034;SDS011;5571;48.110;-1.706;2022-11-21T07:47:57;23.23;;;4.67;;
11034;SDS011;5571;48.110;-1.706;2022-11-21T07:50:27;26.77;;;4.77;;
11034;SDS011;5571;48.110;-1.706;2022-11-21T07:53:00;21.63;;;4.87;;
11034;SDS011;5571;48.110;-1.706;2022-11-21T07:55:27;27.70;;;5.03;;
11034;SDS011;5571;48.110;-1.706;2022-11-21T07:58:09;37.30;;;5.60;;
11034;SDS011;5571;48.110;-1.706;2022-11-21T08:00:37;24.33;;;4.60;;
11034;SDS011;5571;48.110;-1.706;2022-11-21T08:03:04;24.83;;;5.03;;
11034;SDS011;5571;48.110;-1.706;2022-11-21T08:05:37;18.63;;;4.17;;
11034;SDS011;5571;48.110;-1.706;2022-11-21T08:08:06;24.80;;;4.93;;
11034;SDS011;5571;48.110;-1.706;2022-11-21T08:10:35;22.30;;;4.50;;
11034;SDS011;5571;48.110;-1.706;2022-11-21T08:13:02;24.57;;;4.83;;
11034;SDS011;5571;48.110;-1.706;2022-11-21T08:15:27;24.67;;;4.87;;
11034;SDS011;5571;48.110;-1.706;2022-11-21T08:17:53;24.90;;;5.33;;
11034;SDS011;5571;48.110;-1.706;2022-11-21T08:20:19;28.33;;;4.83;;
11034;SDS011;5571;48.110;-1.706;2022-11-21T08:22:44;22.80;;;5.37;;
11034;SDS011;5571;48.110;-1.706;2022-11-21T08:25:10;25.67;;;4.80;;
11034;SDS011;5571;48.110;-1.706;2022-11-21T08:27:36;27.10;;;4.70;;
11034;SDS011;5571;48.110;-1.706;2022-11-21T08:30:06;19.57;;;4.60;;
11034;SDS011;5571;48.110;-1.706;2022-11-21T08:32:34;27.97;;;5.53;;
11034;SDS011;5571;48.110;-1.706;2022-11-21T08:34:59;21.13;;;5.47;;
11034;SDS011;5571;48.110;-1.706;2022-11-21T08:37:26;19.00;;;4.60;;
11034;SDS011;5571;48.110;-1.706;2022-11-21T08:39:53;26.30;;;5.77;;
11034;SDS011;5571;48.110;-1.706;2022-11-21T08:42:19;22.47;;;4.47;;
11034;SDS011;5571;48.110;-1.706;2022-11-21T08:44:45;18.60;;;4.20;;
11034;SDS011;5571;48.110;-1.706;2022-11-21T08:47:10;22.97;;;5.23;;
11034;SDS011;5571;48.110;-1.706;2022-11-21T08:49:36;22.43;;;4.57;;
11034;SDS011;5571;48.110;-1.706;2022-11-21T08:52:01;26.50;;;4.63;;
11034;SDS011;5571;48.110;-1.706;2022-11-21T08:54:27;22.13;;;5.10;;
11034;SDS011;5571;48.110;-1.706;2022-11-21T08:56:53;23.00;;;4.30;;
11034;SDS011;5571;48.110;-1.706;2022-11-21T08:59:18;17.67;;;4.17;;
11034;SDS011;5571;48.110;-1.706;2022-11-21T09:01:44;18.73;;;3.67;;
11034;SDS011;5571;48.110;-1.706;2022-11-21T09:04:10;18.63;;;4.17;;
11034;SDS011;5571;48.110;-1.706;2022-11-21T09:06:36;19.63;;;3.87;;
11034;SDS011;5571;48.110;-1.706;2022-11-21T09:09:03;12.73;;;4.30;;
11034;SDS011;5571;48.110;-1.706;2022-11-21T09:11:30;14.73;;;4.07;;
11034;SDS011;5571;48.110;-1.706;2022-11-21T09:13:57;11.80;;;3.50;;
11034;SDS011;5571;48.110;-1.706;2022-11-21T09:17:01;15.47;;;3.50;;
11034;SDS011;5571;48.110;-1.706;2022-11-21T09:19:46;13.60;;;3.93;;
11034;SDS011;5571;48.110;-1.706;2022-11-21T09:22:11;13.27;;;3.70;;
11034;SDS011;5571;48.110;-1.706;2022-11-21T09:24:37;14.30;;;3.47;;
11034;SDS011;5571;48.110;-1.706;2022-11-21T09:27:03;12.00;;;2.93;;
11034;SDS011;5571;48.110;-1.706;2022-11-21T09:29:28;15.00;;;3.43;;
11034;SDS011;5571;48.110;-1.706;2022-11-21T09:31:54;12.03;;;2.97;;
11034;SDS011;5571;48.110;-1.706;2022-11-21T09:34:19;11.73;;;3.10;;
11034;SDS011;5571;48.110;-1.706;2022-11-21T09:36:45;13.80;;;2.87;;
11034;SDS011;5571;48.110;-1.706;2022-11-21T09:39:11;13.87;;;3.10;;
11034;SDS011;5571;48.110;-1.706;2022-11-21T09:41:53;10.60;;;3.63;;
11034;SDS011;5571;48.110;-1.706;2022-11-21T09:47:05;9.50;;;2.33;;
11034;SDS011;5571;48.110;-1.706;2022-11-21T09:49:41;11.40;;;3.03;;
11034;SDS011;5571;48.110;-1.706;2022-11-21T09:52:11;8.47;;;2.73;;
11034;SDS011;5571;48.110;-1.706;2022-11-21T09:54:41;6.30;;;2.73;;
11034;SDS011;5571;48.110;-1.706;2022-11-21T09:57:17;9.07;;;2.40;;
11034;SDS011;5571;48.110;-1.706;2022-11-21T09:59:46;7.70;;;2.13;;
11034;SDS011;5571;48.110;-1.706;2022-11-21T10:02:14;4.33;;;2.30;;
11034;SDS011;5571;48.110;-1.706;2022-11-21T10:04:42;6.63;;;2.67;;
11034;SDS011;5571;48.110;-1.706;2022-11-21T10:12:39;4.13;;;2.03;;
11034;SDS011;5571;48.110;-1.706;2022-11-21T10:26:20;3.27;;;1.70;;
11034;SDS011;5571;48.110;-1.706;2022-11-21T10:28:55;2.13;;;1.50;;
11034;SDS011;5571;48.110;-1.706;2022-11-21T10:31:34;2.87;;;1.70;;
11034;SDS011;5571;48.110;-1.706;2022-11-21T10:34:02;1.57;;;1.30;;
11034;SDS011;5571;48.110;-1.706;2022-11-21T10:36:39;3.40;;;1.90;;
11034;SDS011;5571;48.110;-1.706;2022-11-21T10:39:13;9.70;;;2.33;;
11034;SDS011;5571;48.110;-1.706;2022-11-21T10:44:42;7.90;;;3.03;;
11034;SDS011;5571;48.110;-1.706;2022-11-21T10:47:33;14.60;;;3.67;;
11034;SDS011;5571;48.110;-1.706;2022-11-21T10:53:19;15.37;;;3.10;;
11034;SDS011;5571;48.110;-1.706;2022-11-21T10:56:00;15.43;;;3.63;;
11034;SDS011;5571;48.110;-1.706;2022-11-21T10:58:39;18.40;;;3.70;;
11034;SDS011;5571;48.110;-1.706;2022-11-21T11:06:34;30.23;;;4.67;;
11034;SDS011;5571;48.110;-1.706;2022-11-21T11:09:04;22.60;;;4.00;;
11034;SDS011;5571;48.110;-1.706;2022-11-21T11:11:31;23.17;;;4.23;;
11034;SDS011;5571;48.110;-1.706;2022-11-21T11:14:01;30.00;;;5.37;;
11034;SDS011;5571;48.110;-1.706;2022-11-21T11:16:30;19.67;;;4.60;;
11034;SDS011;5571;48.110;-1.706;2022-11-21T11:19:14;20.07;;;4.13;;
11034;SDS011;5571;48.110;-1.706;2022-11-21T11:21:44;21.57;;;5.20;;
11034;SDS011;5571;48.110;-1.706;2022-11-21T11:29:17;20.37;;;4.43;;
11034;SDS011;5571;48.110;-1.706;2022-11-21T11:31:51;23.93;;;4.60;;
11034;SDS011;5571;48.110;-1.706;2022-11-21T11:34:17;23.73;;;4.27;;
11034;SDS011;5571;48.110;-1.706;2022-11-21T11:39:32;24.57;;;4.57;;
11034;SDS011;5571;48.110;-1.706;2022-11-21T11:47:57;19.03;;;3.70;;
11034;SDS011;5571;48.110;-1.706;2022-11-21T11:53:20;23.80;;;4.40;;
11034;SDS011;5571;48.110;-1.706;2022-11-21T11:55:58;20.03;;;3.53;;
11034;SDS011;5571;48.110;-1.706;2022-11-21T12:01:38;23.17;;;4.80;;
11034;SDS011;5571;48.110;-1.706;2022-11-21T12:04:36;25.43;;;4.27;;
11034;SDS011;5571;48.110;-1.706;2022-11-21T12:07:16;16.27;;;3.63;;
11034;SDS011;5571;48.110;-1.706;2022-11-21T12:12:37;19.27;;;3.90;;
11034;SDS011;5571;48.110;-1.706;2022-11-21T12:36:42;21.77;;;4.07;;
11034;SDS011;5571;48.110;-1.706;2022-11-21T12:42:05;24.17;;;4.50;;
11034;SDS011;5571;48.110;-1.706;2022-11-21T12:51:39;15.87;;;3.73;;
11034;SDS011;5571;48.110;-1.706;2022-11-21T13:02:31;19.53;;;3.80;;
11034;SDS011;5571;48.110;-1.706;2022-11-21T13:05:24;23.23;;;4.70;;
11034;SDS011;5571;48.110;-1.706;2022-11-21T13:08:00;20.23;;;3.87;;
11034;SDS011;5571;48.110;-1.706;2022-11-21T13:10:35;17.93;;;3.53;;
11034;SDS011;5571;48.110;-1.706;2022-11-21T13:15:47;15.30;;;3.40;;
11034;SDS011;5571;48.110;-1.706;2022-11-21T13:18:22;14.97;;;3.27;;
11034;SDS011;5571;48.110;-1.706;2022-11-21T13:21:09;14.00;;;3.30;;
11034;SDS011;5571;48.110;-1.706;2022-11-21T13:27:26;10.67;;;2.27;;
11034;SDS011;5571;48.110;-1.706;2022-11-21T13:32:41;10.70;;;1.97;;
11034;SDS011;5571;48.110;-1.706;2022-11-21T13:40:37;9.33;;;2.53;;
11034;SDS011;5571;48.110;-1.706;2022-11-21T14:05:33;6.90;;;2.30;;
11034;SDS011;5571;48.110;-1.706;2022-11-21T14:08:13;12.23;;;2.60;;
11034;SDS011;5571;48.110;-1.706;2022-11-21T14:10:46;10.80;;;2.97;;
11034;SDS011;5571;48.110;-1.706;2022-11-21T14:15:58;12.83;;;3.03;;
11034;SDS011;5571;48.110;-1.706;2022-11-21T14:18:48;9.90;;;2.60;;
11034;SDS011;5571;48.110;-1.706;2022-11-21T14:21:18;7.50;;;2.53;;
11034;SDS011;5571;48.110;-1.706;2022-11-21T14:23:53;14.53;;;3.00;;
11034;SDS011;5571;48.110;-1.706;2022-11-21T14:26:24;11.13;;;2.60;;
11034;SDS011;5571;48.110;-1.706;2022-11-21T14:28:50;16.03;;;2.97;;
11034;SDS011;5571;48.110;-1.706;2022-11-21T14:31:16;12.50;;;3.47;;
11034;SDS011;5571;48.110;-1.706;2022-11-21T14:33:43;13.23;;;3.13;;
11034;SDS011;5571;48.110;-1.706;2022-11-21T14:36:13;11.90;;;2.57;;
11034;SDS011;5571;48.110;-1.706;2022-11-21T14:38:51;11.57;;;2.63;;
11034;SDS011;5571;48.110;-1.706;2022-11-21T14:46:28;13.20;;;2.87;;
11034;SDS011;5571;48.110;-1.706;2022-11-21T14:51:42;10.17;;;2.40;;
11034;SDS011;5571;48.110;-1.706;2022-11-21T14:54:22;10.40;;;2.30;;
11034;SDS011;5571;48.110;-1.706;2022-11-21T14:57:16;7.30;;;2.30;;
11034;SDS011;5571;48.110;-1.706;2022-11-21T15:00:06;19.33;;;10.03;;
11034;SDS011;5571;48.110;-1.706;2022-11-21T15:02:33;14.80;;;4.80;;
11034;SDS011;5571;48.110;-1.706;2022-11-21T15:05:00;11.47;;;5.50;;
11034;SDS011;5571;48.110;-1.706;2022-11-21T15:07:35;9.37;;;5.53;;
11034;SDS011;5571;48.110;-1.706;2022-11-21T15:10:14;7.63;;;1.60;;
11034;SDS011;5571;48.110;-1.706;2022-11-21T15:12:59;5.40;;;1.47;;
11034;SDS011;5571;48.110;-1.706;2022-11-21T15:18:06;3.93;;;1.30;;
11034;SDS011;5571;48.110;-1.706;2022-11-21T15:20:43;5.60;;;1.60;;
11034;SDS011;5571;48.110;-1.706;2022-11-21T15:23:24;2.43;;;1.47;;
11034;SDS011;5571;48.110;-1.706;2022-11-21T15:25:49;6.73;;;2.07;;
11034;SDS011;5571;48.110;-1.706;2022-11-21T15:28:15;6.67;;;2.10;;
11034;SDS011;5571;48.110;-1.706;2022-11-21T15:30:42;4.87;;;2.10;;
11034;SDS011;5571;48.110;-1.706;2022-11-21T15:33:15;7.60;;;2.83;;
11034;SDS011;5571;48.110;-1.706;2022-11-21T15:41:03;7.17;;;1.77;;
11034;SDS011;5571;48.110;-1.706;2022-11-21T15:43:42;7.27;;;1.90;;
11034;SDS011;5571;48.110;-1.706;2022-11-21T15:46:24;6.63;;;1.93;;
11034;SDS011;5571;48.110;-1.706;2022-11-21T15:49:03;5.63;;;1.53;;
11034;SDS011;5571;48.110;-1.706;2022-11-21T15:51:31;6.27;;;1.90;;
11034;SDS011;5571;48.110;-1.706;2022-11-21T15:54:01;8.03;;;2.10;;
11034;SDS011;5571;48.110;-1.706;2022-11-21T15:56:27;9.30;;;2.30;;
11034;SDS011;5571;48.110;-1.706;2022-11-21T15:58:52;8.50;;;2.53;;
11034;SDS011;5571;48.110;-1.706;2022-11-21T16:01:22;11.00;;;2.67;;
11034;SDS011;5571;48.110;-1.706;2022-11-21T16:03:57;8.93;;;2.67;;
11034;SDS011;5571;48.110;-1.706;2022-11-21T16:06:25;5.13;;;1.63;;
11034;SDS011;5571;48.110;-1.706;2022-11-21T16:08:51;6.80;;;1.60;;
11034;SDS011;5571;48.110;-1.706;2022-11-21T16:13:51;4.87;;;1.77;;
11034;SDS011;5571;48.110;-1.706;2022-11-21T16:16:18;62.20;;;35.37;;
11034;SDS011;5571;48.110;-1.706;2022-11-21T16:18:45;32.53;;;17.33;;
11034;SDS011;5571;48.110;-1.706;2022-11-21T16:21:11;9.17;;;2.80;;
11034;SDS011;5571;48.110;-1.706;2022-11-21T16:23:37;9.90;;;2.27;;
11034;SDS011;5571;48.110;-1.706;2022-11-21T16:26:04;7.23;;;2.07;;
11034;SDS011;5571;48.110;-1.706;2022-11-21T16:28:31;6.10;;;2.03;;
11034;SDS011;5571;48.110;-1.706;2022-11-21T16:30:57;7.13;;;1.80;;
11034;SDS011;5571;48.110;-1.706;2022-11-21T16:33:24;7.50;;;2.50;;
11034;SDS011;5571;48.110;-1.706;2022-11-21T16:35:50;7.93;;;2.10;;
11034;SDS011;5571;48.110;-1.706;2022-11-21T16:38:19;5.77;;;2.27;;
11034;SDS011;5571;48.110;-1.706;2022-11-21T16:40:56;4.53;;;1.97;;
11034;SDS011;5571;48.110;-1.706;2022-11-21T16:43:23;8.10;;;2.00;;
11034;SDS011;5571;48.110;-1.706;2022-11-21T16:45:50;8.10;;;2.40;;
11034;SDS011;5571;48.110;-1.706;2022-11-21T16:48:16;10.73;;;3.50;;
11034;SDS011;5571;48.110;-1.706;2022-11-21T16:50:43;9.60;;;2.07;;
11034;SDS011;5571;48.110;-1.706;2022-11-21T16:53:09;6.37;;;2.10;;
11034;SDS011;5571;48.110;-1.706;2022-11-21T16:55:34;7.00;;;1.77;;
11034;SDS011;5571;48.110;-1.706;2022-11-21T16:58:00;8.60;;;2.20;;
11034;SDS011;5571;48.110;-1.706;2022-11-21T17:00:26;7.33;;;2.10;;
11034;SDS011;5571;48.110;-1.706;2022-11-21T17:02:52;5.23;;;2.00;;
11034;SDS011;5571;48.110;-1.706;2022-11-21T17:05:18;6.93;;;2.23;;
11034;SDS011;5571;48.110;-1.706;2022-11-21T17:07:44;8.53;;;2.30;;
11034;SDS011;5571;48.110;-1.706;2022-11-21T17:10:10;8.33;;;2.40;;
11034;SDS011;5571;48.110;-1.706;2022-11-21T17:12:39;7.17;;;2.07;;
11034;SDS011;5571;48.110;-1.706;2022-11-21T17:15:08;9.60;;;2.33;;
11034;SDS011;5571;48.110;-1.706;2022-11-21T17:17:36;5.07;;;1.73;;
11034;SDS011;5571;48.110;-1.706;2022-11-21T17:20:02;9.10;;;1.87;;
11034;SDS011;5571;48.110;-1.706;2022-11-21T17:22:29;9.03;;;1.93;;
11034;SDS011;5571;48.110;-1.706;2022-11-21T17:24:54;6.57;;;1.80;;
11034;SDS011;5571;48.110;-1.706;2022-11-21T17:27:20;13.57;;;2.50;;
11034;SDS011;5571;48.110;-1.706;2022-11-21T17:29:47;4.03;;;1.70;;